createdAt,value
2022-08-10T00:01:52.575Z,60.81
2022-08-10T00:04:24.468Z,60.80
2022-08-10T00:06:54.816Z,61.16
2022-08-10T00:09:22.532Z,61.33
2022-08-10T00:11:49.192Z,61.41
2022-08-10T00:14:16.077Z,61.75
2022-08-10T00:16:42.786Z,62.04
2022-08-10T00:19:09.834Z,61.91
2022-08-10T00:21:36.984Z,62.40
2022-08-10T00:24:03.981Z,62.59
2022-08-10T00:27:51.898Z,62.56
2022-08-10T00:29:17.199Z,62.26
2022-08-10T00:31:58.099Z,62.81
2022-08-10T00:34:30.101Z,63.32
2022-08-10T00:36:57.255Z,64.08
2022-08-10T00:39:23.983Z,64.03
2022-08-10T00:42:02.161Z,64.37
2022-08-10T00:44:36.479Z,64.47
2022-08-10T00:47:03.293Z,64.15
2022-08-10T00:49:29.961Z,64.60
2022-08-10T00:51:56.439Z,64.50
2022-08-10T00:54:24.351Z,64.59
2022-08-10T00:57:17.658Z,65.10
2022-08-10T00:59:58.668Z,65.39
2022-08-10T01:02:25.857Z,65.10
2022-08-10T01:04:59.317Z,65.89
2022-08-10T01:07:49.201Z,65.39
2022-08-10T01:10:48.884Z,65.15
2022-08-10T01:13:48.024Z,65.25
2022-08-10T01:16:29.115Z,65.17
2022-08-10T01:19:11.892Z,65.20
2022-08-10T01:22:00.044Z,65.12
2022-08-10T01:24:51.400Z,65.51
2022-08-10T01:27:36.529Z,65.37
2022-08-10T01:30:04.957Z,65.60
2022-08-10T01:32:36.364Z,65.19
2022-08-10T01:35:13.580Z,65.72
2022-08-10T01:37:51.787Z,65.89
2022-08-10T01:40:25.682Z,65.92
2022-08-10T01:42:54.306Z,65.52
2022-08-10T01:45:23.913Z,65.88
2022-08-10T01:48:16.792Z,66.20
2022-08-10T01:50:59.292Z,66.08
2022-08-10T01:53:40.914Z,66.23
2022-08-10T01:56:09.564Z,66.88
2022-08-10T01:58:38.402Z,66.86
2022-08-10T02:01:09.604Z,66.62
2022-08-10T02:04:01.221Z,66.84
2022-08-10T02:06:30.853Z,66.91
2022-08-10T02:09:06.321Z,66.89
2022-08-10T02:12:06.675Z,67.36
2022-08-10T02:14:23.686Z,67.39
2022-08-10T02:16:52.427Z,67.63
2022-08-10T02:19:23.534Z,67.82
2022-08-10T02:22:35.239Z,67.96
2022-08-10T02:24:41.004Z,68.16
2022-08-10T02:27:08.122Z,68.08
2022-08-10T02:29:36.334Z,68.64
2022-08-10T02:32:04.488Z,68.22
2022-08-10T02:34:31.884Z,68.83
2022-08-10T02:37:01.261Z,68.97
2022-08-10T02:39:28.590Z,69.29
2022-08-10T02:45:02.779Z,69.09
2022-08-10T02:45:20.853Z,69.36
2022-08-10T02:47:52.817Z,69.54
2022-08-10T02:50:26.800Z,69.47
2022-08-10T02:53:54.453Z,70.01
2022-08-10T02:56:15.068Z,69.53
2022-08-10T02:58:45.782Z,69.42
2022-08-10T03:01:16.254Z,69.63
2022-08-10T03:03:59.333Z,69.64
2022-08-10T03:06:34.000Z,69.91
2022-08-10T03:09:02.765Z,70.02
2022-08-10T03:12:37.426Z,69.51
2022-08-10T03:14:19.949Z,70.23
2022-08-10T03:16:47.616Z,69.93
2022-08-10T03:20:34.848Z,70.92
2022-08-10T03:22:04.168Z,69.85
2022-08-10T03:24:33.697Z,71.34
2022-08-10T03:27:01.101Z,70.89
2022-08-10T03:29:28.735Z,71.02
2022-08-10T03:31:56.888Z,71.37
2022-08-10T03:34:32.984Z,70.63
2022-08-10T03:37:01.017Z,71.05
2022-08-10T03:39:27.963Z,71.38
2022-08-10T03:41:57.805Z,71.26
2022-08-10T03:44:28.590Z,71.18
2022-08-10T03:46:58.058Z,71.60
2022-08-10T03:49:26.905Z,71.07
2022-08-10T03:51:54.084Z,70.91
2022-08-10T03:54:21.266Z,71.34
2022-08-10T03:56:48.180Z,71.30
2022-08-10T03:59:16.732Z,70.70
2022-08-10T04:02:43.556Z,70.82
2022-08-10T04:04:31.022Z,70.52
2022-08-10T04:06:59.563Z,70.50
2022-08-10T04:09:43.144Z,70.62
2022-08-10T04:12:19.431Z,70.47
2022-08-10T04:14:50.106Z,71.08
2022-08-10T04:17:56.273Z,70.34
2022-08-10T04:20:25.540Z,70.45
2022-08-10T04:23:00.394Z,70.35
2022-08-10T04:25:27.419Z,70.99
2022-08-10T04:27:55.244Z,70.71
2022-08-10T04:30:22.476Z,70.67
2022-08-10T04:32:53.748Z,69.77
2022-08-10T04:35:20.964Z,68.84
2022-08-10T04:37:49.517Z,66.78
2022-08-10T04:40:28.279Z,63.96
2022-08-10T04:43:02.375Z,59.88
2022-08-10T04:45:48.931Z,57.58
2022-08-10T04:48:41.351Z,53.08
2022-08-10T04:51:20.716Z,52.24
2022-08-10T04:54:06.125Z,51.35
2022-08-10T04:56:35.871Z,49.33
2022-08-10T04:59:02.778Z,49.37
2022-08-10T05:02:22.508Z,49.23
2022-08-10T05:04:34.627Z,45.30
2022-08-10T05:07:04.340Z,46.00
2022-08-10T05:09:30.922Z,44.92
2022-08-10T05:11:57.496Z,43.72
2022-08-10T05:14:23.979Z,44.77
2022-08-10T05:16:50.493Z,45.00
2022-08-10T05:19:17.094Z,42.78
2022-08-10T05:21:59.837Z,42.92
2022-08-10T05:24:31.471Z,43.79
2022-08-10T05:26:58.544Z,41.94
2022-08-10T05:29:37.349Z,42.58
2022-08-10T05:32:04.286Z,40.64
2022-08-10T05:34:30.997Z,42.18
2022-08-10T05:36:58.471Z,40.32
2022-08-10T05:39:30.204Z,40.39
2022-08-10T05:42:01.501Z,38.81
2022-08-10T05:44:29.483Z,39.02
2022-08-10T05:46:56.560Z,36.50
2022-08-10T05:49:23.119Z,39.31
2022-08-10T05:51:49.983Z,40.32
2022-08-10T05:54:17.219Z,37.91
2022-08-10T05:56:57.071Z,37.71
2022-08-10T06:00:10.979Z,36.87
2022-08-10T06:02:43.979Z,39.09
2022-08-10T06:05:13.992Z,35.66
2022-08-10T06:07:45.061Z,36.38
2022-08-10T06:10:13.722Z,36.03
2022-08-10T06:12:55.233Z,34.92
2022-08-10T06:15:50.843Z,35.10
2022-08-10T06:18:13.545Z,36.89
2022-08-10T06:20:41.081Z,38.58
2022-08-10T06:23:07.949Z,37.56
2022-08-10T06:28:23.182Z,37.00
2022-08-10T06:30:52.551Z,35.29
2022-08-10T06:33:21.213Z,37.64
2022-08-10T06:35:52.423Z,37.67
2022-08-10T06:38:21.460Z,39.07
2022-08-10T06:40:48.988Z,38.67
2022-08-10T06:43:20.378Z,39.77
2022-08-10T06:46:07.711Z,41.30
2022-08-10T06:48:46.851Z,40.77
2022-08-10T06:51:34.737Z,39.99
2022-08-10T06:54:07.336Z,40.42
2022-08-10T06:56:46.882Z,40.53
2022-08-10T06:59:30.939Z,39.36
2022-08-10T07:02:04.681Z,39.42
2022-08-10T07:04:38.100Z,39.12
2022-08-10T07:07:06.471Z,39.10
2022-08-10T07:09:37.671Z,39.56
2022-08-10T07:12:07.935Z,40.20
2022-08-10T07:14:41.383Z,39.95
2022-08-10T07:17:16.095Z,40.19
2022-08-10T07:19:49.563Z,40.64
2022-08-10T07:23:27.034Z,40.45
2022-08-10T07:25:12.568Z,39.58
2022-08-10T07:27:59.932Z,39.96
2022-08-10T07:30:31.380Z,40.39
2022-08-10T07:33:00.460Z,39.58
2022-08-10T07:35:34.652Z,39.51
2022-08-10T07:38:07.404Z,40.71
2022-08-10T07:40:35.356Z,40.38
2022-08-10T07:43:02.501Z,40.02
2022-08-10T07:45:33.473Z,39.30
2022-08-10T07:48:07.961Z,40.10
2022-08-10T07:50:38.980Z,38.49
2022-08-10T07:53:10.127Z,39.40
2022-08-10T07:56:07.607Z,39.43
2022-08-10T07:58:31.843Z,38.43
2022-08-10T08:01:00.197Z,39.04
2022-08-10T08:03:29.412Z,39.92
2022-08-10T08:06:02.985Z,39.37
2022-08-10T08:08:33.384Z,39.41
2022-08-10T08:11:00.786Z,39.53
2022-08-10T08:13:29.618Z,38.93
2022-08-10T08:16:18.686Z,38.19
2022-08-10T08:19:03.750Z,37.35
2022-08-10T08:24:05.630Z,37.86
2022-08-10T08:24:31.825Z,37.11
2022-08-10T08:27:02.471Z,37.61
2022-08-10T08:29:33.271Z,37.11
2022-08-10T08:32:03.239Z,37.36
2022-08-10T08:34:36.559Z,38.32
2022-08-10T08:37:04.811Z,37.24
2022-08-10T08:39:33.323Z,37.33
2022-08-10T08:42:24.297Z,37.15
2022-08-10T08:45:15.813Z,37.80
2022-08-10T08:48:04.148Z,37.08
2022-08-10T08:50:57.565Z,36.79
2022-08-10T08:54:01.629Z,35.71
2022-08-10T08:56:28.523Z,35.52
2022-08-10T08:59:37.178Z,35.36
2022-08-10T09:02:54.599Z,35.21
2022-08-10T09:05:58.692Z,35.32
2022-08-10T09:08:53.635Z,36.16
2022-08-10T09:11:50.822Z,35.27
2022-08-10T09:14:26.178Z,34.10
2022-08-10T09:17:00.883Z,34.20
2022-08-10T09:19:43.465Z,35.57
2022-08-10T09:22:25.544Z,35.10
2022-08-10T09:24:59.260Z,34.98
2022-08-10T09:27:49.224Z,34.82
2022-08-10T09:30:29.270Z,33.61
2022-08-10T09:36:22.104Z,33.38
2022-08-10T09:36:31.983Z,33.26
2022-08-10T09:40:48.514Z,34.22
2022-08-10T09:42:32.744Z,34.57
2022-08-10T09:45:23.787Z,34.47
2022-08-10T09:48:02.682Z,33.88
2022-08-10T09:50:59.004Z,33.41
2022-08-10T09:53:41.414Z,34.11
2022-08-10T09:56:45.653Z,33.74
2022-08-10T10:00:01.484Z,33.40
2022-08-10T10:02:27.651Z,33.49
2022-08-10T10:05:06.777Z,31.42
2022-08-10T10:07:36.582Z,32.78
2022-08-10T10:10:13.199Z,32.58
2022-08-10T10:13:10.130Z,31.58
2022-08-10T10:16:06.007Z,30.98
2022-08-10T10:18:48.229Z,31.45
2022-08-10T10:21:55.284Z,31.13
2022-08-10T10:24:35.078Z,31.45
2022-08-10T10:27:06.394Z,31.26
2022-08-10T10:30:01.275Z,29.84
2022-08-10T10:32:48.884Z,29.83
2022-08-10T10:35:21.573Z,30.54
2022-08-10T10:38:01.713Z,29.88
2022-08-10T10:40:38.664Z,29.94
2022-08-10T10:43:25.576Z,29.88
2022-08-10T10:46:01.844Z,29.10
2022-08-10T10:48:59.249Z,29.31
2022-08-10T10:51:30.826Z,29.03
2022-08-10T10:54:35.958Z,28.74
2022-08-10T10:57:58.193Z,29.66
2022-08-10T11:00:27.787Z,29.71
2022-08-10T11:03:24.070Z,28.47
2022-08-10T11:06:14.464Z,28.08
2022-08-10T11:08:51.332Z,28.16
2022-08-10T11:12:01.624Z,28.56
2022-08-10T11:14:31.353Z,28.99
2022-08-10T11:17:27.848Z,26.95
2022-08-10T11:20:13.704Z,27.65
2022-08-10T11:22:52.922Z,28.27
2022-08-10T11:25:29.374Z,27.63
2022-08-10T11:28:19.513Z,27.08
2022-08-10T11:30:52.798Z,26.71
2022-08-10T11:34:03.913Z,26.92
2022-08-10T11:36:46.996Z,26.74
2022-08-10T11:39:48.671Z,27.21
2022-08-10T11:42:35.766Z,27.67
2022-08-10T11:45:12.152Z,27.40
2022-08-10T11:47:47.004Z,27.64
2022-08-10T11:50:21.293Z,27.79
2022-08-10T11:53:06.784Z,26.98
2022-08-10T11:55:34.701Z,28.24
2022-08-10T11:58:26.778Z,26.78
2022-08-10T12:00:56.571Z,26.75
2022-08-10T12:03:25.290Z,26.69
2022-08-10T12:05:55.412Z,26.72
2022-08-10T12:10:05.958Z,26.58
2022-08-10T12:11:25.135Z,26.27
2022-08-10T12:14:21.878Z,27.81
2022-08-10T12:17:00.266Z,28.65
2022-08-10T12:20:01.959Z,29.43
2022-08-10T12:22:31.661Z,29.22
2022-08-10T12:25:04.346Z,29.14
2022-08-10T12:27:44.964Z,28.84
2022-08-10T12:30:15.931Z,28.66
2022-08-10T12:33:03.058Z,28.80
2022-08-10T12:35:41.995Z,28.54
2022-08-10T12:38:31.093Z,28.16
2022-08-10T12:41:00.566Z,29.43
2022-08-10T12:44:07.423Z,30.58
2022-08-10T12:46:27.413Z,30.97
2022-08-10T12:49:17.780Z,29.43
2022-08-10T12:52:01.115Z,29.69
2022-08-10T12:54:32.369Z,28.50
2022-08-10T12:57:04.628Z,30.01
2022-08-10T12:59:32.318Z,30.26
2022-08-10T13:02:07.011Z,30.66
2022-08-10T13:04:40.426Z,30.64
2022-08-10T13:07:09.171Z,29.90
2022-08-10T13:09:55.422Z,27.56
2022-08-10T13:12:44.501Z,28.33
2022-08-10T13:15:25.381Z,28.67
2022-08-10T13:18:18.378Z,27.52
2022-08-10T13:20:52.112Z,27.64
2022-08-10T13:23:25.072Z,27.24
2022-08-10T13:25:54.157Z,27.28
2022-08-10T13:28:37.220Z,27.34
2022-08-10T13:31:16.320Z,27.30
2022-08-10T13:34:40.731Z,26.74
2022-08-10T13:36:47.499Z,27.03
2022-08-10T13:39:17.211Z,27.02
2022-08-10T13:41:45.911Z,28.04
2022-08-10T13:44:17.866Z,28.37
2022-08-10T13:46:52.322Z,27.74
2022-08-10T13:49:21.488Z,29.11
2022-08-10T13:51:56.422Z,30.12
2022-08-10T13:54:29.121Z,29.45
2022-08-10T13:56:56.744Z,31.14
2022-08-10T14:00:34.427Z,30.07
2022-08-10T14:02:22.853Z,30.11
2022-08-10T14:04:50.204Z,29.32
2022-08-10T14:07:18.164Z,29.29
2022-08-10T14:09:47.585Z,29.20
2022-08-10T14:12:15.170Z,28.80
2022-08-10T14:14:44.709Z,27.40
2022-08-10T14:17:22.037Z,27.80
2022-08-10T14:19:58.983Z,27.78
2022-08-10T14:22:33.994Z,27.20
2022-08-10T14:25:12.549Z,29.32
2022-08-10T14:28:03.516Z,29.03
2022-08-10T14:30:32.003Z,30.01
2022-08-10T14:33:04.071Z,29.56
2022-08-10T14:36:20.081Z,30.18
2022-08-10T14:38:23.893Z,30.53
2022-08-10T14:40:53.656Z,30.46
2022-08-10T14:43:54.165Z,31.68
2022-08-10T14:46:24.235Z,31.36
2022-08-10T14:48:54.189Z,30.97
2022-08-10T14:51:27.082Z,29.66
2022-08-10T14:54:15.836Z,29.76
2022-08-10T14:56:48.877Z,29.54
2022-08-10T14:59:17.619Z,28.92
2022-08-10T15:01:59.773Z,29.03
2022-08-10T15:04:35.464Z,29.27
2022-08-10T15:07:12.686Z,29.06
2022-08-10T15:10:01.462Z,28.57
2022-08-10T15:12:38.602Z,28.58
2022-08-10T15:15:09.465Z,28.77
2022-08-10T15:17:40.554Z,28.80
2022-08-10T15:20:20.942Z,28.54
2022-08-10T15:23:06.717Z,28.62
2022-08-10T15:25:38.987Z,28.52
2022-08-10T15:28:10.461Z,29.12
2022-08-10T15:30:46.230Z,28.98
2022-08-10T15:34:03.497Z,28.45
2022-08-10T15:36:47.150Z,29.71
2022-08-10T15:40:24.617Z,29.51
2022-08-10T15:42:23.695Z,29.55
2022-08-10T15:44:53.513Z,28.76
2022-08-10T15:47:25.085Z,29.22
2022-08-10T15:50:03.513Z,29.25
2022-08-10T15:53:01.299Z,29.29
2022-08-10T15:55:42.306Z,29.27
2022-08-10T15:58:20.347Z,30.08
2022-08-10T16:02:13.608Z,29.36
2022-08-10T16:04:19.788Z,29.49
2022-08-10T16:07:07.887Z,30.55
2022-08-10T16:10:24.332Z,30.12
2022-08-10T16:12:32.567Z,30.65
2022-08-10T16:15:08.108Z,30.13
2022-08-10T16:17:55.558Z,29.41
2022-08-10T16:20:31.378Z,30.38
2022-08-10T16:23:04.461Z,30.14
2022-08-10T16:25:48.605Z,29.41
2022-08-10T16:28:23.029Z,29.73
2022-08-10T16:30:54.294Z,29.99
2022-08-10T16:33:27.579Z,29.60
2022-08-10T16:36:16.143Z,30.20
2022-08-10T16:38:45.240Z,30.36
2022-08-10T16:42:02.711Z,30.43
2022-08-10T16:44:01.147Z,31.03
2022-08-10T16:46:29.079Z,30.94
2022-08-10T16:48:59.000Z,31.20
2022-08-10T16:51:26.596Z,31.56
2022-08-10T16:53:54.011Z,32.08
2022-08-10T16:56:30.024Z,31.65
2022-08-10T16:58:57.478Z,31.95
2022-08-10T17:01:27.275Z,32.15
2022-08-10T17:04:09.615Z,32.16
2022-08-10T17:06:42.323Z,32.69
2022-08-10T17:09:16.961Z,32.08
2022-08-10T17:11:48.907Z,32.25
2022-08-10T17:14:15.907Z,32.76
2022-08-10T17:16:44.964Z,32.73
2022-08-10T17:19:18.386Z,33.03
2022-08-10T17:21:52.137Z,32.66
2022-08-10T17:24:22.943Z,32.81
2022-08-10T17:26:51.068Z,32.80
2022-08-10T17:29:58.142Z,33.47
2022-08-10T17:32:19.738Z,33.04
2022-08-10T17:34:51.661Z,32.62
2022-08-10T17:37:22.205Z,32.77
2022-08-10T17:40:00.903Z,32.40
2022-08-10T17:42:28.205Z,32.88
2022-08-10T17:44:55.631Z,32.23
2022-08-10T17:47:27.073Z,33.11
2022-08-10T17:49:58.896Z,33.00
2022-08-10T17:52:31.578Z,32.51
2022-08-10T17:55:08.703Z,33.22
2022-08-10T17:57:40.393Z,33.80
2022-08-10T18:00:18.862Z,33.56
2022-08-10T18:02:49.044Z,33.55
2022-08-10T18:05:16.671Z,33.19
2022-08-10T18:07:50.481Z,33.81
2022-08-10T18:10:20.769Z,33.91
2022-08-10T18:12:54.726Z,34.13
2022-08-10T18:15:26.657Z,34.32
2022-08-10T18:17:59.446Z,34.28
2022-08-10T18:20:35.606Z,34.31
2022-08-10T18:23:03.765Z,34.54
2022-08-10T18:25:37.218Z,34.49
2022-08-10T18:28:06.775Z,34.72
2022-08-10T18:30:45.956Z,35.14
2022-08-10T18:33:14.420Z,35.31
2022-08-10T18:35:43.725Z,35.29
2022-08-10T18:38:12.765Z,36.16
2022-08-10T18:40:43.149Z,36.95
2022-08-10T18:44:07.554Z,36.88
2022-08-10T18:46:00.268Z,37.92
2022-08-10T18:48:37.063Z,38.24
2022-08-10T18:51:06.573Z,38.75
2022-08-10T18:53:38.329Z,38.83
2022-08-10T18:56:32.012Z,38.71
2022-08-10T18:59:13.661Z,38.80
2022-08-10T19:02:03.183Z,38.87
2022-08-10T19:04:51.130Z,39.42
2022-08-10T19:07:32.735Z,40.38
2022-08-10T19:10:40.424Z,40.87
2022-08-10T19:13:19.136Z,40.86
2022-08-10T19:15:58.345Z,40.96
2022-08-10T19:18:33.088Z,41.06
2022-08-10T19:21:28.523Z,41.05
2022-08-10T19:24:04.653Z,41.45
2022-08-10T19:27:03.715Z,41.80
2022-08-10T19:30:05.104Z,41.72
2022-08-10T19:32:52.173Z,41.90
2022-08-10T19:36:03.122Z,41.44
2022-08-10T19:38:43.907Z,40.75
2022-08-10T19:41:17.090Z,40.48
2022-08-10T19:44:01.195Z,39.86
2022-08-10T19:46:43.615Z,40.25
2022-08-10T19:49:23.124Z,40.75
2022-08-10T19:52:13.745Z,40.69
2022-08-10T19:55:02.165Z,40.87
2022-08-10T19:57:31.782Z,41.29
2022-08-10T20:00:19.196Z,41.28
2022-08-10T20:02:47.774Z,41.67
2022-08-10T20:05:27.997Z,42.22
2022-08-10T20:08:02.520Z,42.27
2022-08-10T20:10:35.535Z,42.35
2022-08-10T20:13:12.768Z,42.99
2022-08-10T20:15:47.525Z,43.38
2022-08-10T20:18:24.382Z,43.76
2022-08-10T20:21:05.465Z,44.57
2022-08-10T20:23:40.859Z,44.84
2022-08-10T20:26:22.861Z,45.15
2022-08-10T20:29:05.354Z,45.64
2022-08-10T20:31:37.226Z,45.74
2022-08-10T20:34:32.665Z,45.77
2022-08-10T20:37:06.005Z,46.09
2022-08-10T20:39:32.479Z,46.41
2022-08-10T20:42:18.003Z,46.76
2022-08-10T20:45:07.487Z,46.39
2022-08-10T20:47:54.035Z,46.24
2022-08-10T20:50:27.369Z,46.10
2022-08-10T20:52:55.890Z,46.13
2022-08-10T20:55:27.320Z,46.17
2022-08-10T20:58:07.518Z,46.54
2022-08-10T21:00:58.218Z,46.21
2022-08-10T21:03:58.714Z,46.85
2022-08-10T21:06:56.203Z,47.28
2022-08-10T21:09:44.257Z,47.50
2022-08-10T21:12:44.204Z,47.57
2022-08-10T21:15:26.421Z,47.90
2022-08-10T21:18:20.462Z,48.20
2022-08-10T21:21:09.132Z,48.68
2022-08-10T21:23:48.214Z,48.87
2022-08-10T21:26:19.648Z,48.97
2022-08-10T21:29:37.817Z,49.23
2022-08-10T21:32:23.653Z,48.87
2022-08-10T21:35:07.446Z,49.73
2022-08-10T21:37:56.603Z,49.54
2022-08-10T21:41:19.038Z,49.47
2022-08-10T21:44:32.364Z,50.20
2022-08-10T21:48:07.250Z,50.33
2022-08-10T21:51:05.918Z,50.83
2022-08-10T21:54:08.560Z,50.94
2022-08-10T21:57:01.035Z,50.94
2022-08-10T22:02:50.778Z,51.21
2022-08-10T22:05:44.939Z,51.89
2022-08-10T22:08:35.903Z,51.78
2022-08-10T22:11:23.658Z,52.08
2022-08-10T22:14:09.992Z,52.41
2022-08-10T22:17:01.725Z,52.10
2022-08-10T22:19:54.137Z,53.42
2022-08-10T22:22:56.501Z,52.61
2022-08-10T22:25:52.165Z,52.79
2022-08-10T22:28:37.744Z,52.76
2022-08-10T22:31:51.035Z,53.30
2022-08-10T22:34:51.374Z,53.20
2022-08-10T22:37:55.009Z,53.54
2022-08-10T22:40:42.285Z,54.03
2022-08-10T22:43:37.675Z,54.22
2022-08-10T22:46:32.551Z,54.66
2022-08-10T22:49:02.323Z,54.84
2022-08-10T22:51:50.996Z,54.70
2022-08-10T22:54:45.028Z,54.87
2022-08-10T22:57:32.627Z,55.05
2022-08-10T23:00:14.649Z,55.30
2022-08-10T23:02:50.428Z,55.49
2022-08-10T23:05:27.889Z,55.53
2022-08-10T23:08:01.935Z,55.48
2022-08-10T23:10:36.900Z,56.05
2022-08-10T23:13:24.357Z,56.47
2022-08-10T23:16:23.213Z,56.69
2022-08-10T23:19:10.908Z,56.94
2022-08-10T23:22:03.761Z,56.76
2022-08-10T23:24:41.772Z,56.60
2022-08-10T23:27:12.280Z,56.89
2022-08-10T23:30:10.165Z,57.13
2022-08-10T23:32:44.821Z,57.05
2022-08-10T23:36:08.834Z,57.33
2022-08-10T23:38:06.287Z,57.14
2022-08-10T23:40:34.093Z,57.38
2022-08-10T23:43:02.145Z,57.11
2022-08-10T23:45:52.681Z,57.78
2022-08-10T23:48:21.298Z,57.88
2022-08-10T23:50:59.344Z,57.81
2022-08-10T23:53:30.354Z,57.97
2022-08-10T23:56:21.088Z,58.53
2022-08-10T23:58:52.598Z,58.06
